Time;durP1;ratioP1;P1;durP2;ratioP2;P2;SDS_P1;SDS_P2;PMS_P1;PMS_P2;Temp;Humidity;BMP_temperature;BMP_pressure;BME280_temperature;BME280_humidity;BME280_pressure;Samples;Min_cycle;Max_cycle;Signal;HPM_P1;HPM_P2
2021/07/07 00:00:12;;;;;;;;;;;;;;;21.90;71.67;101202.53;5113292;28;19924;-67
2021/07/07 00:02:38;;;;;;;;;;;;;;;21.73;72.05;101199.69;5112798;28;20540;-67
2021/07/07 00:05:05;;;;;;;;;;;;;;;21.37;75.87;101193.38;5112892;28;19930;-67
2021/07/07 00:07:32;;;;;;;;;;;;;;;21.34;73.95;101193.66;5113264;28;19924;-67
2021/07/07 00:10:00;;;;;;;;;;;;;;;21.18;75.71;101185.50;5112913;28;20022;-68
2021/07/07 00:12:27;;;;;;;;;;;;;;;21.02;76.88;101184.28;5113344;28;19936;-68
2021/07/07 00:14:54;;;;;;;;;;;;;;;20.93;77.50;101187.75;5112857;28;19924;-68
2021/07/07 00:17:21;;;;;;;;;;;;;;;20.86;77.19;101182.22;5113072;28;19945;-68
2021/07/07 00:19:47;;;;;;;;;;;;;;;20.85;78.73;101179.69;5112599;28;19924;-68
2021/07/07 00:22:14;;;;;;;;;;;;;;;20.81;78.83;101180.97;5113193;28;19924;-68
2021/07/07 00:24:41;;;;;;;;;;;;;;;20.80;76.20;101179.28;5112467;28;19931;-67
2021/07/07 00:27:09;;;;;;;;;;;;;;;20.87;76.92;101168.00;5114162;28;20294;-67
2021/07/07 00:29:36;;;;;;;;;;;;;;;20.93;76.37;101176.34;5117007;28;19930;-68
2021/07/07 00:32:02;;;;;;;;;;;;;;;20.95;76.53;101172.59;5116778;28;19937;-68
2021/07/07 00:34:29;;;;;;;;;;;;;;;20.86;77.00;101174.28;5117088;28;19936;-67
2021/07/07 00:36:55;;;;;;;;;;;;;;;21.35;73.77;101175.97;5116439;27;19931;-67
2021/07/07 00:39:22;;;;;;;;;;;;;;;21.12;75.99;101178.09;5116714;28;20275;-67
2021/07/07 00:41:49;;;;;;;;;;;;;;;21.18;76.29;101169.63;5116780;28;19928;-67
2021/07/07 00:44:17;;;;;;;;;;;;;;;21.12;76.51;101172.81;5116641;27;20378;-67
2021/07/07 00:46:45;;;;;;;;;;;;;;;21.12;75.15;101164.88;5116531;28;19924;-67
2021/07/07 00:49:13;;;;;;;;;;;;;;;20.86;79.03;101163.69;5116608;28;19924;-67
2021/07/07 00:51:40;;;;;;;;;;;;;;;20.76;79.41;101167.34;5116234;28;19977;-68
2021/07/07 00:54:07;;;;;;;;;;;;;;;20.56;80.39;101161.22;5116543;28;19924;-68
2021/07/07 00:56:35;;;;;;;;;;;;;;;20.73;78.91;101160.53;5116493;28;19924;-68
2021/07/07 00:59:03;;;;;;;;;;;;;;;20.66;80.25;101151.47;5116473;28;19951;-68
2021/07/07 01:01:31;;;;;;;;;;;;;;;20.92;78.05;101153.53;5116570;28;19928;-68
2021/07/07 01:03:57;;;;;;;;;;;;;;;21.00;75.55;101167.72;5116295;28;19924;-67
2021/07/07 01:06:24;;;;;;;;;;;;;;;21.08;75.24;101169.63;5116258;28;19930;-67
2021/07/07 01:08:51;;;;;;;;;;;;;;;20.85;78.70;101161.19;5116001;28;20441;-67
2021/07/07 01:11:17;;;;;;;;;;;;;;;20.77;78.92;101171.63;5116719;28;19924;-67
2021/07/07 01:13:44;;;;;;;;;;;;;;;20.79;79.99;101169.69;5115892;28;20294;-67
2021/07/07 01:16:11;;;;;;;;;;;;;;;20.77;80.38;101169.00;5116181;28;19924;-67
2021/07/07 01:18:39;;;;;;;;;;;;;;;20.62;80.44;101169.41;5116311;28;20331;-67
2021/07/07 01:21:05;;;;;;;;;;;;;;;20.59;80.57;101172.34;5115875;28;19924;-68
2021/07/07 01:23:34;;;;;;;;;;;;;;;20.40;81.29;101175.78;5115915;28;20294;-67
2021/07/07 01:26:01;;;;;;;;;;;;;;;20.36;81.36;101171.75;5115545;28;20373;-67
2021/07/07 01:28:28;;;;;;;;;;;;;;;20.38;80.71;101182.19;5115669;28;19973;-67
2021/07/07 01:30:56;;;;;;;;;;;;;;;20.44;81.17;101185.09;5115761;28;19946;-67
2021/07/07 01:33:22;;;;;;;;;;;;;;;20.53;80.67;101190.53;5115924;28;19923;-67
2021/07/07 01:35:49;;;;;;;;;;;;;;;20.79;77.77;101193.50;5115444;28;20282;-67
2021/07/07 01:38:16;;;;;;;;;;;;;;;21.05;76.59;101213.09;5114946;28;19931;-67
2021/07/07 01:40:44;;;;;;;;;;;;;;;21.34;73.52;101214.00;5115559;28;19931;-67
2021/07/07 01:43:10;;;;;;;;;;;;;;;21.19;73.56;101235.59;5115707;28;19923;-67
2021/07/07 01:45:37;;;;;;;;;;;;;;;20.88;75.17;101241.09;5115952;28;19931;-67
2021/07/07 01:48:04;;;;;;;;;;;;;;;20.04;84.58;101248.56;5115915;28;19985;-67
2021/07/07 01:50:30;;;;;;;;;;;;;;;19.35;84.33;101255.28;5115378;28;19924;-67
2021/07/07 01:52:58;;;;;;;;;;;;;;;19.15;85.43;101250.84;5115445;28;19924;-67
2021/07/07 01:55:26;;;;;;;;;;;;;;;19.09;86.21;101244.28;5115234;28;19924;-67
2021/07/07 01:57:54;;;;;;;;;;;;;;;19.07;85.87;101245.38;5115387;28;19927;-67
2021/07/07 02:00:22;;;;;;;;;;;;;;;19.06;87.16;101239.28;5115361;28;19963;-67
2021/07/07 02:02:49;;;;;;;;;;;;;;;18.99;88.31;101234.63;5115250;28;20018;-67
2021/07/07 02:05:16;;;;;;;;;;;;;;;19.04;89.33;101228.00;5115024;28;20289;-67
2021/07/07 02:07:43;;;;;;;;;;;;;;;19.17;88.87;101221.72;5115038;28;19969;-67
2021/07/07 02:10:11;;;;;;;;;;;;;;;19.22;87.13;101222.16;5115316;28;19946;-68
2021/07/07 02:12:38;;;;;;;;;;;;;;;19.22;87.16;101223.00;5115323;28;19923;-68
2021/07/07 02:15:08;;;;;;;;;;;;;;;19.25;87.92;101217.47;5115160;28;19946;-68
2021/07/07 02:17:34;;;;;;;;;;;;;;;19.28;88.17;101225.09;5115258;28;19924;-67
2021/07/07 02:20:01;;;;;;;;;;;;;;;19.11;89.30;101225.69;5114873;28;19924;-67
2021/07/07 02:22:28;;;;;;;;;;;;;;;19.36;89.43;101206.81;5114646;28;19924;-68
2021/07/07 02:24:54;;;;;;;;;;;;;;;19.31;89.22;101211.66;5114504;28;19931;-67
2021/07/07 02:27:21;;;;;;;;;;;;;;;19.31;87.62;101208.19;5114775;28;19924;-67
2021/07/07 02:29:47;;;;;;;;;;;;;;;19.34;86.43;101202.63;5114608;28;19924;-67
2021/07/07 02:32:15;;;;;;;;;;;;;;;19.42;87.18;101197.56;5114444;28;20267;-68
2021/07/07 02:34:42;;;;;;;;;;;;;;;19.45;85.21;101199.94;5114572;28;19930;-68
2021/07/07 02:37:09;;;;;;;;;;;;;;;19.28;88.23;101198.72;5114553;28;19924;-68
2021/07/07 02:39:35;;;;;;;;;;;;;;;19.25;87.25;101193.72;5114561;28;20332;-68
2021/07/07 02:42:02;;;;;;;;;;;;;;;19.27;88.24;101197.06;5114221;28;19930;-68
2021/07/07 02:44:28;;;;;;;;;;;;;;;19.20;88.67;101197.72;5114370;28;20482;-67
2021/07/07 02:46:55;;;;;;;;;;;;;;;19.28;88.54;101198.72;5113859;28;20280;-67
2021/07/07 02:49:25;;;;;;;;;;;;;;;19.47;86.86;101207.72;5114551;28;19923;-68
2021/07/07 02:51:51;;;;;;;;;;;;;;;19.45;87.01;101209.66;5113982;28;19924;-68
2021/07/07 02:54:18;;;;;;;;;;;;;;;19.55;85.78;101213.19;5114136;28;19974;-67
2021/07/07 02:56:45;;;;;;;;;;;;;;;19.48;86.54;101209.41;5114119;28;19924;-68
2021/07/07 02:59:12;;;;;;;;;;;;;;;19.28;87.81;101203.19;5114450;28;19924;-67
2021/07/07 03:01:38;;;;;;;;;;;;;;;19.31;87.58;101202.91;5114103;28;19924;-67
2021/07/07 03:04:05;;;;;;;;;;;;;;;19.34;88.24;101203.50;5114264;28;19924;-67
2021/07/07 03:06:33;;;;;;;;;;;;;;;19.46;87.50;101204.25;5114299;28;19931;-68
2021/07/07 03:09:02;;;;;;;;;;;;;;;19.39;87.70;101202.25;5114047;28;19927;-68
2021/07/07 03:11:29;;;;;;;;;;;;;;;19.45;87.46;101209.66;5114123;28;19924;-68
2021/07/07 03:13:56;;;;;;;;;;;;;;;19.58;86.05;101208.47;5113431;28;20301;-68
2021/07/07 03:16:23;;;;;;;;;;;;;;;19.56;85.29;101201.66;5114047;28;19924;-67
2021/07/07 03:18:50;;;;;;;;;;;;;;;19.97;84.25;101206.00;5113697;28;19932;-67
2021/07/07 03:21:16;;;;;;;;;;;;;;;20.01;83.38;101206.56;5113796;28;20393;-67
2021/07/07 03:23:44;;;;;;;;;;;;;;;19.91;84.61;101201.28;5113575;28;19939;-68
2021/07/07 03:26:11;;;;;;;;;;;;;;;19.84;85.84;101204.59;5113570;28;19923;-68
2021/07/07 03:28:38;;;;;;;;;;;;;;;19.69;84.94;101197.00;5113673;28;20382;-68
2021/07/07 03:31:04;;;;;;;;;;;;;;;19.55;88.51;101194.72;5113682;28;19924;-68
2021/07/07 03:33:31;;;;;;;;;;;;;;;19.46;88.37;101192.84;5113736;28;19930;-68
2021/07/07 03:35:59;;;;;;;;;;;;;;;19.48;86.89;101198.84;5113150;28;19939;-68
2021/07/07 03:38:25;;;;;;;;;;;;;;;19.42;87.32;101194.94;5113838;28;20378;-68
2021/07/07 03:40:53;;;;;;;;;;;;;;;19.49;86.66;101195.22;5113361;28;19931;-68
2021/07/07 03:43:20;;;;;;;;;;;;;;;19.72;86.28;101190.63;5113565;28;19928;-68
2021/07/07 03:45:47;;;;;;;;;;;;;;;19.92;86.32;101195.00;5112957;28;20003;-68
2021/07/07 03:48:13;;;;;;;;;;;;;;;20.05;82.84;101186.84;5113221;28;19924;-67
2021/07/07 03:50:40;;;;;;;;;;;;;;;20.14;85.00;101188.69;5113193;28;19945;-68
2021/07/07 03:53:07;;;;;;;;;;;;;;;20.22;83.89;101185.38;5112980;28;19923;-67
2021/07/07 03:55:34;;;;;;;;;;;;;;;20.22;83.97;101188.00;5113379;28;19924;-68
2021/07/07 03:58:02;;;;;;;;;;;;;;;20.14;83.57;101187.81;5112826;28;19928;-68
2021/07/07 04:00:30;;;;;;;;;;;;;;;20.36;82.35;101197.34;5113278;28;19924;-68
2021/07/07 04:02:58;;;;;;;;;;;;;;;20.43;81.07;101196.66;5112344;28;20373;-67
2021/07/07 04:05:25;;;;;;;;;;;;;;;20.47;79.93;101191.91;5113269;28;19923;-67
2021/07/07 04:07:52;;;;;;;;;;;;;;;20.34;80.97;101194.00;5112432;28;20370;-68
2021/07/07 04:10:18;;;;;;;;;;;;;;;20.27;81.39;101192.84;5113225;28;19924;-67
2021/07/07 04:12:46;;;;;;;;;;;;;;;20.44;79.16;101184.25;5112645;28;19930;-68
2021/07/07 04:15:14;;;;;;;;;;;;;;;20.52;79.51;101200.25;5112896;28;19924;-68
2021/07/07 04:17:42;;;;;;;;;;;;;;;20.66;78.96;101185.84;5112679;28;19928;-68
2021/07/07 04:20:10;;;;;;;;;;;;;;;21.05;77.83;101196.38;5112863;28;19930;-67
2021/07/07 04:22:37;;;;;;;;;;;;;;;21.20;76.05;101191.50;5112854;28;19930;-68
2021/07/07 04:25:04;;;;;;;;;;;;;;;21.23;77.56;101185.91;5112861;28;19924;-68
2021/07/07 04:27:30;;;;;;;;;;;;;;;21.16;78.15;101192.75;5112625;28;20392;-68
2021/07/07 04:29:57;;;;;;;;;;;;;;;21.21;77.53;101187.84;5112813;28;19924;-67
2021/07/07 04:32:25;;;;;;;;;;;;;;;21.39;77.01;101195.91;5112685;28;19930;-68
2021/07/07 04:34:53;;;;;;;;;;;;;;;21.35;77.47;101187.41;5112527;28;20381;-68
2021/07/07 04:37:19;;;;;;;;;;;;;;;21.44;76.93;101204.25;5113045;28;19927;-68
2021/07/07 04:39:46;;;;;;;;;;;;;;;21.28;78.24;101203.00;5112681;28;19928;-68
2021/07/07 04:42:12;;;;;;;;;;;;;;;21.62;75.89;101209.63;5112748;28;19930;-67
2021/07/07 04:44:39;;;;;;;;;;;;;;;21.56;75.74;101212.88;5112347;28;20374;-66
2021/07/07 04:47:06;;;;;;;;;;;;;;;21.58;74.12;101219.69;5113206;28;19924;-68
2021/07/07 04:49:34;;;;;;;;;;;;;;;21.40;75.48;101216.94;5112560;28;19931;-68
2021/07/07 04:52:00;;;;;;;;;;;;;;;21.49;74.92;101216.06;5112359;28;19924;-68
2021/07/07 04:54:27;;;;;;;;;;;;;;;21.37;75.33;101203.94;5112456;28;19962;-68
2021/07/07 04:56:54;;;;;;;;;;;;;;;21.32;74.69;101200.91;5112553;28;19923;-70
2021/07/07 04:59:20;;;;;;;;;;;;;;;21.51;75.37;101194.75;5112442;28;19924;-68
2021/07/07 05:01:47;;;;;;;;;;;;;;;21.63;72.70;101196.25;5112506;28;19928;-68
2021/07/07 05:04:13;;;;;;;;;;;;;;;21.70;72.84;101193.84;5112377;28;19923;-68
2021/07/07 05:06:41;;;;;;;;;;;;;;;21.75;73.54;101194.25;5112015;28;20426;-69
2021/07/07 05:09:08;;;;;;;;;;;;;;;21.65;74.42;101199.56;5112637;28;19923;-68
2021/07/07 05:11:35;;;;;;;;;;;;;;;21.35;76.26;101192.69;5112258;28;19931;-68
2021/07/07 05:14:01;;;;;;;;;;;;;;;21.66;74.68;101190.66;5113297;28;20285;-69
2021/07/07 05:16:28;;;;;;;;;;;;;;;21.77;74.84;101188.81;5116049;28;19924;-69
2021/07/07 05:18:54;;;;;;;;;;;;;;;21.73;77.20;101196.19;5116034;28;19924;-69
2021/07/07 05:21:21;;;;;;;;;;;;;;;21.97;73.28;101198.31;5116036;28;20022;-69
2021/07/07 05:23:49;;;;;;;;;;;;;;;22.02;73.27;101200.53;5115993;27;19931;-68
2021/07/07 05:26:16;;;;;;;;;;;;;;;21.99;72.92;101204.31;5115759;28;19924;-69
2021/07/07 05:28:42;;;;;;;;;;;;;;;21.86;74.30;101196.72;5115354;28;19927;-69
2021/07/07 05:31:09;;;;;;;;;;;;;;;22.06;72.71;101201.88;5116202;28;19931;-68
2021/07/07 05:33:36;;;;;;;;;;;;;;;22.20;74.27;101200.59;5115733;28;19945;-69
2021/07/07 05:36:04;;;;;;;;;;;;;;;22.20;74.30;101196.13;5115437;28;20304;-67
2021/07/07 05:38:30;;;;;;;;;;;;;;;22.34;72.24;101205.38;5115584;28;20420;-67
2021/07/07 05:40:58;;;;;;;;;;;;;;;22.20;72.10;101209.38;5115502;28;19930;-68
2021/07/07 05:43:25;;;;;;;;;;;;;;;22.28;72.38;101204.16;5115531;28;20027;-68
2021/07/07 05:45:52;;;;;;;;;;;;;;;22.42;73.79;101213.41;5115546;28;19927;-68
2021/07/07 05:48:19;;;;;;;;;;;;;;;22.62;73.21;101211.44;5115607;28;19958;-67
2021/07/07 05:50:45;;;;;;;;;;;;;;;22.68;71.88;101213.47;5115129;28;19924;-68
2021/07/07 05:53:12;;;;;;;;;;;;;;;22.71;70.92;101212.34;5114888;28;19936;-67
2021/07/07 05:55:39;;;;;;;;;;;;;;;22.68;73.77;101213.47;5114381;28;19930;-68
2021/07/07 05:58:07;;;;;;;;;;;;;;;23.03;69.44;101212.63;5115337;28;19931;-68
2021/07/07 06:00:33;;;;;;;;;;;;;;;23.36;68.31;101201.41;5115208;28;19930;-68
2021/07/07 06:03:00;;;;;;;;;;;;;;;23.38;68.28;101202.94;5114950;28;20393;-68
2021/07/07 06:05:27;;;;;;;;;;;;;;;23.41;69.16;101212.41;5115367;28;19930;-67
2021/07/07 06:07:54;;;;;;;;;;;;;;;23.13;70.97;101219.69;5114738;28;19930;-68
2021/07/07 06:10:23;;;;;;;;;;;;;;;23.08;69.97;101216.66;5114923;28;19924;-68
2021/07/07 06:12:50;;;;;;;;;;;;;;;23.15;68.95;101194.66;5114991;28;19924;-68
2021/07/07 06:15:18;;;;;;;;;;;;;;;23.14;67.45;101198.28;5114974;28;19931;-67
2021/07/07 06:17:45;;;;;;;;;;;;;;;23.32;68.38;101189.44;5114582;28;19930;-67
2021/07/07 06:20:12;;;;;;;;;;;;;;;23.61;68.05;101191.72;5114745;28;20408;-67
2021/07/07 06:22:39;;;;;;;;;;;;;;;23.49;68.56;101193.84;5115040;28;19924;-68
2021/07/07 06:25:07;;;;;;;;;;;;;;;23.08;68.69;101206.03;5114718;28;19923;-68
2021/07/07 06:27:34;;;;;;;;;;;;;;;23.28;68.77;101198.72;5114904;28;19931;-68
2021/07/07 06:30:01;;;;;;;;;;;;;;;23.33;69.33;101207.03;5114879;28;19923;-67
2021/07/07 06:32:29;;;;;;;;;;;;;;;23.40;67.19;101208.06;5114721;28;20323;-67
2021/07/07 06:35:00;;;;;;;;;;;;;;;23.32;67.36;101222.13;5114565;28;19924;-67
2021/07/07 06:37:27;;;;;;;;;;;;;;;23.60;66.39;101230.75;5114572;28;19934;-67
2021/07/07 06:39:53;;;;;;;;;;;;;;;23.97;68.04;101219.00;5114185;28;19930;-68
2021/07/07 06:42:20;;;;;;;;;;;;;;;23.86;67.10;101217.44;5114530;28;19924;-68
2021/07/07 06:44:47;;;;;;;;;;;;;;;23.84;66.39;101227.44;5114068;28;19927;-68
2021/07/07 06:47:13;;;;;;;;;;;;;;;23.89;66.48;101224.25;5114483;28;19930;-68
2021/07/07 06:49:41;;;;;;;;;;;;;;;24.32;65.21;101235.69;5113866;28;20426;-68
2021/07/07 06:52:08;;;;;;;;;;;;;;;24.32;65.11;101225.06;5114259;28;19923;-68
2021/07/07 06:54:35;;;;;;;;;;;;;;;24.31;65.66;101228.72;5114064;28;19930;-68
2021/07/07 06:57:01;;;;;;;;;;;;;;;24.37;64.80;101232.56;5114080;28;19923;-68
2021/07/07 06:59:28;;;;;;;;;;;;;;;24.56;65.27;101232.31;5114034;28;20385;-67
2021/07/07 07:01:54;;;;;;;;;;;;;;;24.61;65.13;101235.31;5113785;28;19924;-67
2021/07/07 07:04:21;;;;;;;;;;;;;;;24.79;64.51;101237.81;5114307;28;19943;-68
2021/07/07 07:06:49;;;;;;;;;;;;;;;24.45;63.82;101235.25;5113885;28;19924;-67
2021/07/07 07:09:16;;;;;;;;;;;;;;;24.48;65.59;101237.59;5114097;28;19923;-68
2021/07/07 07:11:42;;;;;;;;;;;;;;;24.28;64.20;101237.88;5113472;28;19924;-67
2021/07/07 07:14:09;;;;;;;;;;;;;;;24.17;64.60;101242.63;5114072;28;19924;-67
2021/07/07 07:16:36;;;;;;;;;;;;;;;24.16;66.84;101243.66;5113689;28;19978;-68
2021/07/07 07:19:03;;;;;;;;;;;;;;;24.26;67.05;101242.50;5113665;28;19927;-67
2021/07/07 07:21:30;;;;;;;;;;;;;;;24.06;65.28;101249.91;5113817;28;19924;-68
2021/07/07 07:23:58;;;;;;;;;;;;;;;24.10;65.14;101242.47;5113311;28;20029;-67
2021/07/07 07:26:25;;;;;;;;;;;;;;;24.54;65.85;101235.13;5113531;28;19931;-67
2021/07/07 07:28:52;;;;;;;;;;;;;;;24.84;64.33;101246.13;5113139;28;20381;-68
2021/07/07 07:31:18;;;;;;;;;;;;;;;25.73;61.46;101244.34;5113688;28;19930;-68
2021/07/07 07:33:45;;;;;;;;;;;;;;;25.66;62.83;101239.88;5113189;27;19924;-68
2021/07/07 07:36:11;;;;;;;;;;;;;;;26.25;60.99;101240.31;5113403;28;19924;-67
2021/07/07 07:38:42;;;;;;;;;;;;;;;26.68;59.92;101246.88;5113336;28;19924;-68
2021/07/07 07:41:10;;;;;;;;;;;;;;;27.09;57.46;101248.41;5113305;28;19923;-67
2021/07/07 07:43:37;;;;;;;;;;;;;;;27.76;56.76;101242.19;5113545;28;19947;-67
2021/07/07 07:46:04;;;;;;;;;;;;;;;27.84;54.69;101241.31;5113194;28;19931;-69
2021/07/07 07:48:31;;;;;;;;;;;;;;;28.25;53.33;101235.41;5113401;28;19923;-68
2021/07/07 07:50:57;;;;;;;;;;;;;;;28.99;52.63;101238.63;5112712;28;19931;-68
2021/07/07 07:53:24;;;;;;;;;;;;;;;29.06;53.69;101233.34;5113249;28;19931;-68
2021/07/07 07:55:51;;;;;;;;;;;;;;;29.17;52.02;101230.13;5113205;28;19923;-68
2021/07/07 07:58:21;;;;;;;;;;;;;;;28.54;52.28;101227.31;5112618;28;20209;-68
2021/07/07 08:00:48;;;;;;;;;;;;;;;27.98;52.93;101232.44;5112580;28;19924;-68
2021/07/07 08:03:15;;;;;;;;;;;;;;;28.66;53.82;101231.13;5113264;28;19923;-69
2021/07/07 08:05:43;;;;;;;;;;;;;;;29.17;51.21;101235.47;5112717;28;19924;-68
2021/07/07 08:08:10;;;;;;;;;;;;;;;29.56;50.26;101239.44;5112783;28;19923;-68
2021/07/07 08:10:37;;;;;;;;;;;;;;;27.99;54.37;101239.44;5112922;28;19924;-69
2021/07/07 08:13:04;;;;;;;;;;;;;;;26.23;57.66;101234.31;5112856;28;19950;-68
2021/07/07 08:15:33;;;;;;;;;;;;;;;25.85;59.83;101228.84;5113184;28;19924;-67
2021/07/07 08:18:00;;;;;;;;;;;;;;;25.38;62.75;101232.28;5112590;28;20404;-68
2021/07/07 08:20:27;;;;;;;;;;;;;;;25.16;64.56;101237.31;5113172;28;19930;-68
2021/07/07 08:22:55;;;;;;;;;;;;;;;24.84;64.42;101237.28;5112377;28;19934;-68
2021/07/07 08:25:22;;;;;;;;;;;;;;;24.36;65.48;101250.34;5113053;28;19924;-68
2021/07/07 08:27:48;;;;;;;;;;;;;;;24.10;67.99;101232.66;5112567;28;20404;-68
2021/07/07 08:30:15;;;;;;;;;;;;;;;23.98;69.14;101230.47;5113107;28;19930;-68
2021/07/07 08:32:44;;;;;;;;;;;;;;;23.31;73.98;101244.34;5112984;28;19978;-68
2021/07/07 08:35:11;;;;;;;;;;;;;;;23.69;72.03;101259.03;5112837;28;19924;-69
2021/07/07 08:37:39;;;;;;;;;;;;;;;23.60;73.19;101252.00;5113182;28;20293;-68
2021/07/07 08:40:06;;;;;;;;;;;;;;;23.62;72.22;101244.72;5112541;28;19924;-68
2021/07/07 08:42:35;;;;;;;;;;;;;;;24.12;67.75;101251.94;5112570;28;19924;-68
2021/07/07 08:45:01;;;;;;;;;;;;;;;27.09;60.08;101262.56;5112536;28;19927;-68
2021/07/07 08:47:28;;;;;;;;;;;;;;;28.25;55.84;101267.50;5112871;28;19924;-68
2021/07/07 08:49:56;;;;;;;;;;;;;;;28.69;56.91;101264.72;5116221;28;19924;-68
2021/07/07 08:52:23;;;;;;;;;;;;;;;28.01;57.39;101264.16;5116910;28;19924;-69
2021/07/07 08:54:50;;;;;;;;;;;;;;;27.79;59.10;101260.53;5116106;28;20396;-68
2021/07/07 08:57:19;;;;;;;;;;;;;;;26.55;62.56;101259.16;5116319;28;19930;-68
2021/07/07 08:59:46;;;;;;;;;;;;;;;25.93;64.43;101266.13;5116087;28;19924;-68
2021/07/07 09:02:13;;;;;;;;;;;;;;;25.82;66.19;101263.81;5116242;28;20325;-68
2021/07/07 09:04:41;;;;;;;;;;;;;;;25.29;66.72;101274.09;5116155;28;19923;-68
2021/07/07 09:07:10;;;;;;;;;;;;;;;24.76;68.19;101272.72;5116435;28;19924;-68
2021/07/07 09:09:38;;;;;;;;;;;;;;;24.71;68.11;101267.91;5116304;28;19946;-69
2021/07/07 09:12:19;;;;;;;;;;;;;;;24.90;66.14;101266.75;5116488;28;19950;-68
2021/07/07 09:14:46;;;;;;;;;;;;;;;24.66;68.43;101278.22;5113182;28;20381;-69
2021/07/07 09:17:13;;;;;;;;;;;;;;;24.62;69.14;101271.53;5115971;28;20321;-69
2021/07/07 09:19:40;;;;;;;;;;;;;;;24.56;70.97;101274.88;5116026;28;19924;-68
2021/07/07 09:22:07;;;;;;;;;;;;;;;24.51;70.78;101277.19;5115978;28;19923;-68
2021/07/07 09:24:36;;;;;;;;;;;;;;;24.82;69.34;101276.56;5116052;28;19928;-67
2021/07/07 09:27:05;;;;;;;;;;;;;;;25.93;66.79;101278.63;5115846;28;19924;-68
2021/07/07 09:29:33;;;;;;;;;;;;;;;27.22;62.03;101278.00;5115586;28;20289;-68
2021/07/07 09:31:59;;;;;;;;;;;;;;;28.14;58.29;101284.88;5115514;28;19930;-68
2021/07/07 09:34:26;;;;;;;;;;;;;;;29.62;55.46;101286.91;5116013;28;19930;-69
2021/07/07 09:36:54;;;;;;;;;;;;;;;29.99;52.79;101278.66;5115318;27;19931;-69
2021/07/07 09:39:21;;;;;;;;;;;;;;;30.24;51.82;101277.16;5115786;28;19954;-68
2021/07/07 09:41:51;;;;;;;;;;;;;;;31.54;47.64;101280.34;5115351;28;19923;-69
2021/07/07 09:44:18;;;;;;;;;;;;;;;31.23;46.61;101281.81;5115556;28;19927;-69
2021/07/07 09:46:45;;;;;;;;;;;;;;;30.40;48.15;101272.44;5115496;28;19924;-68
2021/07/07 09:49:12;;;;;;;;;;;;;;;30.60;47.25;101266.06;5115343;28;20027;-69
2021/07/07 09:51:38;;;;;;;;;;;;;;;30.43;47.38;101277.41;5115475;28;19924;-68
2021/07/07 09:54:06;;;;;;;;;;;;;;;30.81;44.79;101283.03;5115216;28;19924;-68
2021/07/07 09:56:33;;;;;;;;;;;;;;;31.68;42.77;101281.97;5115666;28;20288;-68
2021/07/07 09:59:02;;;;;;;;;;;;;;;32.97;41.32;101280.06;5114923;28;20289;-69
2021/07/07 10:01:28;;;;;;;;;;;;;;;32.39;41.34;101295.56;5114961;28;19932;-69
2021/07/07 10:03:57;;;;;;;;;;;;;;;29.88;45.10;101285.44;5115142;28;19934;-68
2021/07/07 10:06:23;;;;;;;;;;;;;;;28.36;49.95;101286.59;5115315;28;19976;-68
2021/07/07 10:08:51;;;;;;;;;;;;;;;28.12;52.64;101287.72;5115089;28;19962;-68
2021/07/07 10:11:17;;;;;;;;;;;;;;;27.85;52.07;101302.63;5115063;28;20292;-69
2021/07/07 10:13:45;;;;;;;;;;;;;;;27.57;51.96;101305.91;5115107;28;19924;-68
2021/07/07 10:16:14;;;;;;;;;;;;;;;28.31;50.70;101302.38;5115146;28;20014;-68
2021/07/07 10:18:41;;;;;;;;;;;;;;;28.56;52.37;101305.56;5114873;27;19930;-69
2021/07/07 10:21:08;;;;;;;;;;;;;;;28.96;49.28;101300.59;5115146;28;19923;-68
2021/07/07 10:23:38;;;;;;;;;;;;;;;29.74;48.78;101303.28;5114804;28;20296;-68
2021/07/07 10:26:06;;;;;;;;;;;;;;;29.45;47.56;101302.47;5114737;28;19928;-68
2021/07/07 10:28:33;;;;;;;;;;;;;;;29.30;50.53;101310.59;5114428;28;20417;-68
2021/07/07 10:31:01;;;;;;;;;;;;;;;30.61;47.58;101309.84;5114671;28;19924;-68
2021/07/07 10:33:31;;;;;;;;;;;;;;;30.87;44.80;101308.28;5114936;28;20014;-68
2021/07/07 10:36:14;;;;;;;;;;;;;;;31.72;43.75;101325.41;5114265;28;19923;-69
2021/07/07 10:38:40;;;;;;;;;;;;;;;30.13;47.50;101317.91;5114522;28;19930;-68
2021/07/07 10:41:07;;;;;;;;;;;;;;;28.94;49.48;101308.00;5114455;28;19930;-68
2021/07/07 10:43:43;;;;;;;;;;;;;;;28.46;51.41;101307.72;5114866;28;19924;-69
2021/07/07 10:46:10;;;;;;;;;;;;;;;28.15;52.56;101311.44;5114439;28;19927;-68
2021/07/07 10:48:38;;;;;;;;;;;;;;;28.89;50.57;101310.44;5114413;28;19963;-69
2021/07/07 10:51:19;;;;;;;;;;;;;;;29.85;48.99;101321.53;5114168;28;19931;-68
2021/07/07 10:53:45;;;;;;;;;;;;;;;29.99;48.57;101327.78;5113487;28;19931;-68
2021/07/07 10:56:12;;;;;;;;;;;;;;;28.84;50.16;101319.03;5114434;28;19931;-68
2021/07/07 10:58:39;;;;;;;;;;;;;;;28.29;52.13;101306.28;5114033;28;19930;-67
2021/07/07 11:01:26;;;;;;;;;;;;;;;28.14;52.64;101317.81;5114327;28;20018;-68
2021/07/07 11:04:00;;;;;;;;;;;;;;;27.46;54.06;101310.84;5113871;28;19931;-68
2021/07/07 11:06:28;;;;;;;;;;;;;;;27.24;53.87;101309.91;5114321;28;19923;-67
2021/07/07 11:09:07;;;;;;;;;;;;;;;26.32;55.58;101313.28;5113751;28;19924;-68
2021/07/07 11:11:35;;;;;;;;;;;;;;;25.93;57.50;101324.78;5113145;28;19924;-68
2021/07/07 11:14:09;;;;;;;;;;;;;;;25.41;60.50;101342.00;5113288;28;19959;-68
2021/07/07 11:16:44;;;;;;;;;;;;;;;24.60;62.03;101340.03;5113480;28;19928;-68
2021/07/07 11:19:25;;;;;;;;;;;;;;;25.06;61.49;101340.44;5113579;28;19930;-68
2021/07/07 11:21:53;;;;;;;;;;;;;;;24.65;63.33;101340.38;5113118;28;19923;-67
2021/07/07 11:24:20;;;;;;;;;;;;;;;24.48;64.43;101344.84;5113104;28;19930;-68
2021/07/07 11:26:48;;;;;;;;;;;;;;;25.02;63.87;101338.28;5113163;28;19927;-68
2021/07/07 11:29:18;;;;;;;;;;;;;;;25.41;62.03;101344.66;5112919;28;20431;-68
2021/07/07 11:31:44;;;;;;;;;;;;;;;24.80;63.39;101345.91;5113137;28;19978;-68
2021/07/07 11:34:11;;;;;;;;;;;;;;;24.64;63.96;101348.53;5113244;28;19923;-68
2021/07/07 11:36:38;;;;;;;;;;;;;;;24.93;63.37;101356.91;5113265;28;19946;-68
2021/07/07 11:39:07;;;;;;;;;;;;;;;25.02;62.58;101371.03;5112710;28;20376;-67
2021/07/07 11:41:33;;;;;;;;;;;;;;;25.35;62.83;101379.09;5112775;28;20481;-68
2021/07/07 11:44:00;;;;;;;;;;;;;;;25.46;62.88;101377.94;5112353;28;20395;-68
2021/07/07 11:46:30;;;;;;;;;;;;;;;25.62;62.14;101370.78;5112657;28;19934;-68
2021/07/07 11:49:06;;;;;;;;;;;;;;;26.52;59.55;101352.88;5112416;28;19924;-68
2021/07/07 11:51:35;;;;;;;;;;;;;;;27.54;55.83;101350.84;5112671;28;19924;-68
2021/07/07 11:54:02;;;;;;;;;;;;;;;28.81;54.22;101346.19;5112396;28;19923;-69
2021/07/07 11:56:32;;;;;;;;;;;;;;;29.99;50.26;101351.09;5112902;28;19939;-69
2021/07/07 11:58:59;;;;;;;;;;;;;;;29.40;49.33;101355.81;5112745;28;19924;-69
2021/07/07 12:01:26;;;;;;;;;;;;;;;27.95;52.75;101359.34;5112888;28;19930;-68
2021/07/07 12:03:54;;;;;;;;;;;;;;;29.53;49.29;101357.78;5112385;28;20413;-69
2021/07/07 12:06:28;;;;;;;;;;;;;;;29.22;50.38;101364.34;5112746;28;19973;-69
2021/07/07 12:08:55;;;;;;;;;;;;;;;28.33;52.24;101375.25;5112082;28;20297;-68
2021/07/07 12:11:23;;;;;;;;;;;;;;;27.85;52.68;101380.16;5112365;28;19924;-69
2021/07/07 12:13:51;;;;;;;;;;;;;;;28.62;51.45;101379.78;5112122;28;19928;-69
2021/07/07 12:16:23;;;;;;;;;;;;;;;28.87;50.49;101379.41;5112317;28;19924;-69
2021/07/07 12:18:51;;;;;;;;;;;;;;;28.80;50.71;101383.88;5112354;28;20041;-69
2021/07/07 12:21:32;;;;;;;;;;;;;;;30.34;46.78;101381.41;5112417;28;20280;-69
2021/07/07 12:24:00;;;;;;;;;;;;;;;28.70;49.89;101396.75;5112584;28;20270;-69
2021/07/07 12:26:27;;;;;;;;;;;;;;;29.71;48.31;101395.69;5116918;28;19928;-69
2021/07/07 12:28:57;;;;;;;;;;;;;;;30.08;48.19;101388.31;5116666;28;19924;-69
2021/07/07 12:31:24;;;;;;;;;;;;;;;29.56;48.37;101381.50;5117147;28;20375;-69
2021/07/07 12:33:53;;;;;;;;;;;;;;;27.43;53.26;101372.66;5116953;28;19930;-68
2021/07/07 12:36:23;;;;;;;;;;;;;;;26.95;54.95;101367.50;5116987;28;19924;-68